createdAt,value
2022-10-15T00:01:43.189Z,12.35
2022-10-15T00:04:10.718Z,11.55
2022-10-15T00:06:37.690Z,11.65
2022-10-15T00:09:05.158Z,11.38
2022-10-15T00:11:32.575Z,12.10
2022-10-15T00:14:00.437Z,11.75
2022-10-15T00:16:29.391Z,12.48
2022-10-15T00:18:58.009Z,13.13
2022-10-15T00:21:25.301Z,12.05
2022-10-15T00:23:52.482Z,12.30
2022-10-15T00:26:28.021Z,12.85
2022-10-15T00:29:00.210Z,11.80
2022-10-15T00:31:30.378Z,13.43
2022-10-15T00:33:59.264Z,12.80
2022-10-15T00:36:29.047Z,12.77
2022-10-15T00:38:56.553Z,12.15
2022-10-15T00:41:24.506Z,13.38
2022-10-15T00:43:56.911Z,11.93
2022-10-15T00:46:29.092Z,12.32
2022-10-15T00:49:00.276Z,12.27
2022-10-15T00:51:34.146Z,13.48
2022-10-15T00:54:01.632Z,13.13
2022-10-15T00:56:31.010Z,13.07
2022-10-15T00:58:58.301Z,12.32
2022-10-15T01:01:25.897Z,12.65
2022-10-15T01:03:54.663Z,13.00
2022-10-15T01:06:21.971Z,13.23
2022-10-15T01:08:48.993Z,13.05
2022-10-15T01:11:19.223Z,13.48
2022-10-15T01:13:59.806Z,12.57
2022-10-15T01:16:36.182Z,13.35
2022-10-15T01:19:42.032Z,13.52
2022-10-15T01:22:44.652Z,13.23
2022-10-15T01:25:49.426Z,13.32
2022-10-15T01:28:45.138Z,13.10
2022-10-15T01:31:34.050Z,13.68
2022-10-15T01:34:04.139Z,14.05
2022-10-15T01:36:41.367Z,14.20
2022-10-15T01:39:32.744Z,14.50
2022-10-15T01:42:08.138Z,16.23
2022-10-15T01:44:40.764Z,16.67
2022-10-15T01:47:12.466Z,15.95
2022-10-15T01:49:43.065Z,16.37
2022-10-15T01:52:14.113Z,16.60
2022-10-15T01:54:42.019Z,16.95
2022-10-15T01:57:10.214Z,17.00
2022-10-15T01:59:37.381Z,18.90
2022-10-15T02:02:04.748Z,18.52
2022-10-15T02:04:32.374Z,16.40
2022-10-15T02:07:12.012Z,17.23
2022-10-15T02:10:11.556Z,17.50
2022-10-15T02:12:57.965Z,16.23
2022-10-15T02:15:43.569Z,17.42
2022-10-15T02:18:13.093Z,16.98
2022-10-15T02:20:47.939Z,19.33
2022-10-15T02:23:46.694Z,18.73
2022-10-15T02:26:14.884Z,18.23
2022-10-15T02:28:46.434Z,17.80
2022-10-15T02:31:15.288Z,18.65
2022-10-15T02:33:43.402Z,19.08
2022-10-15T02:36:13.311Z,17.90
2022-10-15T02:38:43.553Z,18.17
2022-10-15T02:41:11.946Z,19.12
2022-10-15T02:43:40.572Z,18.42
2022-10-15T02:46:09.358Z,18.50
2022-10-15T02:48:37.023Z,18.90
2022-10-15T02:51:04.992Z,18.52
2022-10-15T02:53:32.334Z,19.17
2022-10-15T02:55:59.711Z,18.00
2022-10-15T02:58:26.826Z,18.87
2022-10-15T03:00:53.925Z,17.37
2022-10-15T03:03:21.308Z,19.00
2022-10-15T03:05:48.536Z,18.48
2022-10-15T03:08:15.892Z,20.00
2022-10-15T03:10:43.300Z,18.05
2022-10-15T03:13:10.606Z,18.27
2022-10-15T03:15:38.601Z,18.85
2022-10-15T03:18:07.930Z,17.12
2022-10-15T03:20:35.217Z,19.67
2022-10-15T03:23:02.353Z,17.87
2022-10-15T03:25:30.120Z,19.55
2022-10-15T03:27:57.776Z,18.90
2022-10-15T03:30:25.313Z,17.55
2022-10-15T03:32:52.741Z,17.98
2022-10-15T03:35:19.804Z,18.20
2022-10-15T03:37:46.965Z,18.05
2022-10-15T03:40:14.779Z,19.30
2022-10-15T03:42:42.551Z,19.52
2022-10-15T03:45:10.418Z,19.92
2022-10-15T03:47:37.986Z,19.58
2022-10-15T03:50:05.353Z,19.23
2022-10-15T03:52:32.331Z,19.15
2022-10-15T03:54:59.682Z,18.75
2022-10-15T03:57:27.159Z,17.80
2022-10-15T03:59:54.919Z,18.55
2022-10-15T04:02:23.161Z,16.70
2022-10-15T04:04:54.210Z,19.08
2022-10-15T04:07:21.667Z,16.23
2022-10-15T04:09:48.755Z,16.98
2022-10-15T04:12:19.358Z,17.73
2022-10-15T04:14:46.521Z,17.75
2022-10-15T04:17:13.570Z,17.70
2022-10-15T04:19:41.156Z,18.25
2022-10-15T04:22:08.149Z,17.20
2022-10-15T04:24:35.576Z,18.55
2022-10-15T04:27:03.845Z,17.92
2022-10-15T04:29:31.397Z,16.80
2022-10-15T04:32:06.671Z,18.05
2022-10-15T04:34:33.703Z,19.12
2022-10-15T04:37:00.806Z,18.45
2022-10-15T04:39:28.412Z,18.60
2022-10-15T04:41:55.753Z,18.30
2022-10-15T04:44:24.252Z,18.30
2022-10-15T04:46:51.898Z,18.42
2022-10-15T04:49:20.178Z,19.00
2022-10-15T04:51:48.415Z,18.73
2022-10-15T04:54:16.783Z,19.73
2022-10-15T04:56:46.798Z,19.85
2022-10-15T04:59:13.808Z,19.92
2022-10-15T05:01:46.614Z,19.45
2022-10-15T05:04:15.243Z,22.25
2022-10-15T05:06:43.528Z,22.23
2022-10-15T05:09:13.502Z,18.75
2022-10-15T05:11:43.371Z,18.90
2022-10-15T05:14:12.003Z,20.10
2022-10-15T05:16:39.210Z,21.05
2022-10-15T05:19:07.741Z,20.33
2022-10-15T05:21:36.376Z,18.85
2022-10-15T05:24:05.347Z,20.25
2022-10-15T05:26:39.152Z,21.62
2022-10-15T05:29:06.625Z,20.90
2022-10-15T05:31:34.737Z,20.00
2022-10-15T05:34:07.133Z,21.77
2022-10-15T05:36:34.880Z,21.90
2022-10-15T05:39:03.771Z,21.35
2022-10-15T05:41:32.412Z,22.40
2022-10-15T05:43:59.725Z,21.55
2022-10-15T05:46:28.546Z,21.42
2022-10-15T05:48:57.214Z,21.50
2022-10-15T05:51:26.540Z,22.55
2022-10-15T05:53:55.441Z,21.90
2022-10-15T05:56:22.994Z,21.98
2022-10-15T05:58:50.642Z,22.80
2022-10-15T06:01:18.568Z,21.83
2022-10-15T06:03:51.428Z,22.27
2022-10-15T06:06:23.843Z,20.48
2022-10-15T06:08:51.462Z,19.95
2022-10-15T06:11:18.633Z,20.62
2022-10-15T06:13:46.492Z,19.75
2022-10-15T06:16:17.986Z,20.02
2022-10-15T06:18:48.148Z,18.02
2022-10-15T06:21:15.418Z,20.70
2022-10-15T06:23:42.408Z,18.45
2022-10-15T06:26:10.301Z,17.98
2022-10-15T06:28:38.339Z,18.25
2022-10-15T06:31:06.352Z,17.62
2022-10-15T06:33:34.944Z,17.10
2022-10-15T06:36:10.686Z,17.30
2022-10-15T06:38:39.373Z,16.55
2022-10-15T06:41:07.721Z,17.20
2022-10-15T06:43:35.672Z,17.55
2022-10-15T06:46:04.558Z,16.83
2022-10-15T06:48:32.798Z,17.73
2022-10-15T06:51:00.886Z,18.42
2022-10-15T06:53:29.143Z,16.90
2022-10-15T06:55:58.243Z,17.25
2022-10-15T06:58:25.408Z,17.92
2022-10-15T07:00:52.554Z,16.08
2022-10-15T07:03:19.878Z,16.70
2022-10-15T07:05:46.867Z,17.10
2022-10-15T07:08:16.957Z,15.77
2022-10-15T07:10:46.973Z,15.25
2022-10-15T07:13:14.642Z,17.20
2022-10-15T07:15:41.655Z,14.63
2022-10-15T07:18:08.932Z,14.75
2022-10-15T07:20:36.467Z,15.77
2022-10-15T07:23:03.543Z,15.05
2022-10-15T07:25:31.663Z,15.35
2022-10-15T07:27:58.895Z,13.45
2022-10-15T07:30:29.291Z,13.93
2022-10-15T07:32:57.493Z,14.27
2022-10-15T07:35:25.498Z,15.52
2022-10-15T07:37:52.644Z,15.93
2022-10-15T07:40:20.892Z,16.12
2022-10-15T07:42:55.021Z,14.65
2022-10-15T07:45:23.777Z,14.87
2022-10-15T07:47:50.937Z,14.38
2022-10-15T07:50:18.582Z,15.30
2022-10-15T07:52:46.902Z,14.73
2022-10-15T07:55:13.973Z,14.63
2022-10-15T07:57:40.934Z,12.75
2022-10-15T08:00:08.881Z,13.65
2022-10-15T08:02:39.570Z,15.20
2022-10-15T08:05:07.502Z,13.73
2022-10-15T08:07:34.497Z,14.00
2022-10-15T08:10:06.469Z,13.85
2022-10-15T08:12:34.040Z,13.38
2022-10-15T08:15:01.046Z,13.30
2022-10-15T08:17:28.120Z,14.20
2022-10-15T08:19:55.588Z,13.68
2022-10-15T08:22:22.785Z,13.75
2022-10-15T08:24:50.021Z,13.15
2022-10-15T08:27:17.307Z,14.35
2022-10-15T08:29:47.037Z,12.48
2022-10-15T08:32:14.035Z,13.10
2022-10-15T08:34:41.421Z,13.65
2022-10-15T08:37:08.459Z,13.32
2022-10-15T08:39:35.808Z,12.37
2022-10-15T08:42:06.691Z,11.75
2022-10-15T08:44:50.549Z,12.52
2022-10-15T08:47:20.927Z,12.98
2022-10-15T08:49:51.193Z,12.85
2022-10-15T08:52:25.198Z,11.38
2022-10-15T08:54:56.317Z,12.40
2022-10-15T08:57:52.082Z,12.00
2022-10-15T09:00:23.784Z,11.82
2022-10-15T09:03:09.509Z,10.20
2022-10-15T09:05:47.477Z,10.88
2022-10-15T09:08:34.976Z,11.23
2022-10-15T09:11:17.170Z,11.07
2022-10-15T09:13:45.394Z,12.18
2022-10-15T09:16:18.752Z,11.38
2022-10-15T09:18:52.379Z,12.02
2022-10-15T09:21:20.778Z,10.95
2022-10-15T09:23:48.086Z,11.90
2022-10-15T09:26:44.867Z,12.05
2022-10-15T09:29:21.394Z,11.48
2022-10-15T09:32:05.898Z,10.40
2022-10-15T09:34:42.093Z,12.05
2022-10-15T09:37:49.995Z,11.50
2022-10-15T09:40:33.058Z,11.25
2022-10-15T09:43:00.561Z,10.05
2022-10-15T09:45:27.942Z,9.90
2022-10-15T09:48:04.100Z,10.05
2022-10-15T09:50:42.997Z,9.52
2022-10-15T09:53:36.635Z,11.57
2022-10-15T09:56:16.770Z,9.33
2022-10-15T09:58:55.504Z,9.48
2022-10-15T10:01:25.349Z,9.52
2022-10-15T10:04:14.789Z,8.70
2022-10-15T10:06:50.852Z,9.52
2022-10-15T10:09:24.217Z,8.43
2022-10-15T10:11:53.890Z,8.97
2022-10-15T10:14:32.862Z,9.27
2022-10-15T10:17:27.790Z,8.30
2022-10-15T10:20:13.033Z,7.95
2022-10-15T10:22:50.412Z,12.18
2022-10-15T10:25:44.318Z,7.85
2022-10-15T10:28:13.968Z,7.87
2022-10-15T10:31:03.349Z,7.12
2022-10-15T10:33:35.520Z,7.05
2022-10-15T10:36:04.500Z,7.03
2022-10-15T10:38:40.760Z,6.85
2022-10-15T10:41:10.389Z,10.32
2022-10-15T10:43:39.860Z,6.25
2022-10-15T10:46:27.033Z,6.15
2022-10-15T10:48:54.656Z,6.45
2022-10-15T10:51:24.767Z,6.40
2022-10-15T10:54:06.915Z,5.78
2022-10-15T10:56:42.418Z,6.00
2022-10-15T10:59:17.889Z,5.90
2022-10-15T11:01:48.970Z,6.72
2022-10-15T11:04:27.601Z,6.28
2022-10-15T11:07:07.143Z,6.25
2022-10-15T11:09:56.057Z,6.03
2022-10-15T11:12:42.602Z,6.20
2022-10-15T11:15:34.550Z,5.55
2022-10-15T11:18:04.839Z,5.72
2022-10-15T11:20:53.121Z,6.07
2022-10-15T11:23:28.705Z,6.35
2022-10-15T11:25:55.726Z,5.90
2022-10-15T11:28:41.170Z,5.57
2022-10-15T11:32:10.159Z,5.65
2022-10-15T11:35:09.159Z,5.37
2022-10-15T11:37:55.425Z,6.32
2022-10-15T11:40:46.690Z,5.82
2022-10-15T11:43:20.351Z,6.15
2022-10-15T11:45:53.295Z,5.72
2022-10-15T11:48:31.034Z,6.87
2022-10-15T11:51:04.217Z,5.90
2022-10-15T11:54:05.105Z,6.97
2022-10-15T11:56:38.863Z,6.68
2022-10-15T11:59:25.026Z,5.82
2022-10-15T12:02:02.737Z,5.53
2022-10-15T12:04:35.626Z,5.35
2022-10-15T12:07:05.285Z,5.32
2022-10-15T12:09:37.308Z,5.22
2022-10-15T12:12:07.839Z,5.40
2022-10-15T12:14:41.833Z,4.93
2022-10-15T12:17:13.126Z,4.65
2022-10-15T12:19:43.304Z,4.70
2022-10-15T12:22:13.821Z,4.87
2022-10-15T12:24:52.282Z,4.90
2022-10-15T12:27:19.189Z,4.15
2022-10-15T12:30:11.830Z,4.50
2022-10-15T12:32:42.036Z,4.68
2022-10-15T12:35:36.310Z,4.57
2022-10-15T12:38:22.554Z,4.28
2022-10-15T12:40:57.329Z,3.97
2022-10-15T12:43:25.391Z,5.55
2022-10-15T12:45:57.875Z,3.75
2022-10-15T12:48:35.597Z,4.45
2022-10-15T12:51:21.317Z,4.55
2022-10-15T12:53:49.396Z,4.40
2022-10-15T12:56:16.604Z,4.95
2022-10-15T12:58:48.489Z,4.47
2022-10-15T13:01:15.468Z,4.37
2022-10-15T13:03:49.236Z,4.68
2022-10-15T13:06:24.604Z,4.68
2022-10-15T13:08:55.644Z,5.20
2022-10-15T13:11:29.705Z,4.75
2022-10-15T13:14:01.357Z,5.62
2022-10-15T13:16:28.894Z,5.47
2022-10-15T13:18:57.418Z,4.57
2022-10-15T13:21:55.345Z,5.12
2022-10-15T13:24:27.275Z,4.68
2022-10-15T13:26:55.806Z,4.25
2022-10-15T13:29:27.646Z,4.78
2022-10-15T13:31:56.781Z,4.75
2022-10-15T13:34:35.716Z,4.47
2022-10-15T13:37:04.393Z,5.15
2022-10-15T13:39:41.742Z,4.75
2022-10-15T13:42:17.800Z,4.40
2022-10-15T13:44:57.145Z,4.82
2022-10-15T13:47:38.327Z,4.87
2022-10-15T13:50:25.280Z,3.97
2022-10-15T13:52:55.876Z,4.70
2022-10-15T13:55:36.322Z,4.68
2022-10-15T13:58:22.335Z,4.47
2022-10-15T14:01:08.677Z,5.78
2022-10-15T14:03:38.737Z,4.45
2022-10-15T14:06:23.513Z,4.78
2022-10-15T14:08:53.541Z,5.75
2022-10-15T14:11:20.955Z,5.20
2022-10-15T14:13:55.125Z,6.30
2022-10-15T14:16:32.657Z,5.45
2022-10-15T14:19:20.665Z,5.10
2022-10-15T14:21:52.033Z,5.45
2022-10-15T14:24:30.110Z,5.22
2022-10-15T14:27:03.951Z,5.53
2022-10-15T14:29:43.019Z,6.20
2022-10-15T14:32:53.857Z,6.90
2022-10-15T14:35:35.565Z,6.50
2022-10-15T14:38:08.898Z,7.32
2022-10-15T14:40:36.024Z,8.90
2022-10-15T14:43:06.277Z,8.13
2022-10-15T14:45:42.060Z,9.63
2022-10-15T14:48:12.598Z,8.38
2022-10-15T14:50:42.676Z,7.95
2022-10-15T14:53:16.369Z,6.97
2022-10-15T14:55:46.975Z,7.20
2022-10-15T14:58:18.473Z,7.37
2022-10-15T15:00:50.075Z,6.72
2022-10-15T15:03:19.626Z,8.75
2022-10-15T15:05:52.804Z,8.05
2022-10-15T15:08:20.758Z,7.37
2022-10-15T15:13:26.153Z,8.30
2022-10-15T15:15:53.456Z,8.20
2022-10-15T15:18:21.006Z,10.65
2022-10-15T15:20:49.331Z,8.68
2022-10-15T15:23:22.051Z,7.82
2022-10-15T15:25:49.992Z,8.43
2022-10-15T15:28:20.544Z,9.40
2022-10-15T15:30:55.372Z,8.43
2022-10-15T15:33:22.763Z,8.50
2022-10-15T15:35:59.921Z,8.65
2022-10-15T15:38:33.426Z,8.63
2022-10-15T15:41:10.455Z,9.63
2022-10-15T15:43:37.793Z,8.88
2022-10-15T15:46:04.812Z,8.63
2022-10-15T15:48:31.814Z,8.45
2022-10-15T15:51:03.510Z,9.23
2022-10-15T15:53:30.511Z,9.23
2022-10-15T15:55:57.521Z,8.98
2022-10-15T15:58:24.890Z,9.13
2022-10-15T16:00:51.870Z,8.93
2022-10-15T16:03:19.186Z,9.82
2022-10-15T16:05:46.272Z,11.00
2022-10-15T16:08:13.240Z,11.32
2022-10-15T16:10:40.625Z,10.50
2022-10-15T16:13:07.601Z,12.43
2022-10-15T16:15:34.632Z,11.75
2022-10-15T16:18:01.929Z,9.80
2022-10-15T16:20:29.131Z,10.18
2022-10-15T16:22:56.087Z,10.05
2022-10-15T16:25:25.245Z,9.85
2022-10-15T16:27:56.757Z,10.57
2022-10-15T16:30:24.111Z,10.88
2022-10-15T16:32:51.300Z,10.10
2022-10-15T16:35:18.308Z,10.95
2022-10-15T16:37:46.122Z,11.27
2022-10-15T16:40:13.147Z,12.45
2022-10-15T16:42:40.152Z,13.82
2022-10-15T16:45:07.931Z,13.57
2022-10-15T16:47:35.158Z,11.93
2022-10-15T16:50:02.558Z,12.25
2022-10-15T16:52:29.946Z,11.50
2022-10-15T16:54:57.050Z,12.00
2022-10-15T16:57:24.061Z,11.32
2022-10-15T16:59:51.539Z,11.80
2022-10-15T17:02:18.822Z,11.98
2022-10-15T17:04:46.817Z,11.65
2022-10-15T17:07:14.237Z,10.52
2022-10-15T17:09:41.354Z,12.25
2022-10-15T17:12:08.388Z,11.98
2022-10-15T17:14:35.797Z,12.80
2022-10-15T17:17:02.801Z,11.95
2022-10-15T17:19:33.245Z,12.07
2022-10-15T17:22:01.564Z,12.50
2022-10-15T17:24:28.595Z,11.85
2022-10-15T17:26:57.974Z,10.52
2022-10-15T17:29:29.050Z,11.07
2022-10-15T17:32:01.030Z,10.05
2022-10-15T17:34:28.329Z,9.77
2022-10-15T17:36:56.328Z,10.40
2022-10-15T17:39:23.581Z,9.88
2022-10-15T17:41:51.849Z,10.82
2022-10-15T17:44:19.763Z,9.25
2022-10-15T17:49:24.937Z,8.85
2022-10-15T17:51:51.964Z,9.80
2022-10-15T17:54:19.869Z,11.55
2022-10-15T17:56:48.621Z,11.32
2022-10-15T17:59:15.852Z,10.85
2022-10-15T18:01:58.279Z,9.63
2022-10-15T18:04:28.342Z,9.73
2022-10-15T18:06:55.765Z,9.82
2022-10-15T18:09:27.443Z,9.40
2022-10-15T18:11:56.354Z,9.07
2022-10-15T18:14:28.933Z,9.20
2022-10-15T18:16:56.560Z,9.07
2022-10-15T18:19:25.766Z,9.07
2022-10-15T18:21:52.964Z,9.35
2022-10-15T18:24:22.074Z,10.20
2022-10-15T18:26:53.170Z,9.40
2022-10-15T18:29:22.307Z,9.50
2022-10-15T18:31:53.451Z,9.00
2022-10-15T18:34:23.805Z,9.60
2022-10-15T18:36:50.775Z,9.25
2022-10-15T18:39:17.757Z,10.05
2022-10-15T18:41:45.450Z,9.48
2022-10-15T18:44:16.032Z,9.50
2022-10-15T18:46:45.093Z,9.15
2022-10-15T18:49:15.240Z,9.27
2022-10-15T18:51:42.361Z,9.30
2022-10-15T18:54:10.908Z,8.95
2022-10-15T18:56:39.125Z,9.50
2022-10-15T18:59:06.118Z,9.95
2022-10-15T19:01:44.242Z,9.13
2022-10-15T19:04:14.806Z,9.27
2022-10-15T19:06:43.947Z,9.73
2022-10-15T19:09:15.495Z,9.80
2022-10-15T19:11:45.529Z,8.80
2022-10-15T19:14:15.377Z,9.73
2022-10-15T19:16:43.528Z,9.10
2022-10-15T19:19:12.997Z,8.60
2022-10-15T19:21:40.405Z,9.77
2022-10-15T19:24:07.476Z,10.02
2022-10-15T19:26:34.761Z,9.65
2022-10-15T19:29:02.253Z,10.25
2022-10-15T19:31:31.497Z,9.55
2022-10-15T19:33:59.286Z,9.50
2022-10-15T19:36:38.133Z,8.75
2022-10-15T19:39:12.044Z,8.63
2022-10-15T19:41:40.566Z,8.55
2022-10-15T19:44:08.330Z,8.93
2022-10-15T19:46:38.898Z,8.57
2022-10-15T19:49:07.178Z,8.90
2022-10-15T19:51:34.740Z,8.90
2022-10-15T19:54:01.846Z,8.20
2022-10-15T19:56:29.974Z,9.55
2022-10-15T19:58:58.976Z,8.10
2022-10-15T20:01:26.883Z,8.00
2022-10-15T20:03:54.302Z,8.50
2022-10-15T20:06:21.367Z,8.25
2022-10-15T20:08:48.396Z,8.93
2022-10-15T20:11:15.756Z,7.87
2022-10-15T20:13:42.788Z,8.70
2022-10-15T20:16:11.500Z,8.13
2022-10-15T20:18:38.794Z,7.70
2022-10-15T20:21:13.810Z,7.47
2022-10-15T20:23:42.538Z,7.25
2022-10-15T20:26:12.482Z,7.78
2022-10-15T20:28:40.907Z,7.72
2022-10-15T20:31:10.237Z,7.90
2022-10-15T20:33:38.475Z,8.05
2022-10-15T20:36:07.532Z,7.85
2022-10-15T20:38:35.710Z,7.90
2022-10-15T20:41:14.522Z,7.20
2022-10-15T20:43:43.302Z,7.03
2022-10-15T20:46:12.994Z,7.93
2022-10-15T20:48:41.611Z,7.50
2022-10-15T20:51:09.525Z,7.90
2022-10-15T20:53:36.613Z,7.87
2022-10-15T20:56:03.941Z,7.62
2022-10-15T20:58:31.429Z,8.57
2022-10-15T21:00:59.401Z,7.57
2022-10-15T21:03:26.937Z,7.78
2022-10-15T21:05:54.257Z,7.10
2022-10-15T21:08:22.564Z,7.37
2022-10-15T21:10:49.664Z,7.28
2022-10-15T21:13:16.964Z,7.93
2022-10-15T21:15:43.960Z,8.23
2022-10-15T21:18:10.978Z,7.68
2022-10-15T21:20:38.266Z,7.60
2022-10-15T21:23:05.325Z,8.23
2022-10-15T21:25:34.093Z,7.50
2022-10-15T21:28:01.427Z,7.85
2022-10-15T21:30:28.409Z,6.70
2022-10-15T21:32:55.433Z,7.22
2022-10-15T21:35:22.730Z,7.32
2022-10-15T21:37:51.349Z,7.03
2022-10-15T21:40:18.396Z,6.47
2022-10-15T21:42:45.652Z,7.18
2022-10-15T21:45:12.685Z,7.05
2022-10-15T21:47:39.698Z,7.20
2022-10-15T21:50:07.165Z,7.70
2022-10-15T21:52:34.165Z,7.62
2022-10-15T21:55:01.174Z,7.70
2022-10-15T21:57:28.572Z,7.00
2022-10-15T21:59:55.891Z,7.80
2022-10-15T22:02:22.880Z,7.68
2022-10-15T22:04:50.195Z,7.50
2022-10-15T22:07:17.473Z,7.28
2022-10-15T22:09:44.518Z,7.75
2022-10-15T22:12:11.783Z,9.18
2022-10-15T22:14:38.927Z,7.57
2022-10-15T22:17:05.934Z,8.30
2022-10-15T22:19:33.177Z,8.18
2022-10-15T22:22:00.189Z,8.20
2022-10-15T22:24:27.578Z,7.85
2022-10-15T22:26:55.298Z,6.93
2022-10-15T22:29:24.699Z,7.72
2022-10-15T22:31:52.501Z,6.65
2022-10-15T22:34:20.740Z,6.78
2022-10-15T22:36:47.906Z,9.02
2022-10-15T22:39:16.247Z,7.55
2022-10-15T22:41:45.342Z,6.85
2022-10-15T22:44:14.728Z,6.80
2022-10-15T22:46:41.908Z,6.85
2022-10-15T22:49:10.249Z,6.03
2022-10-15T22:51:37.249Z,6.50
2022-10-15T22:54:04.674Z,7.25
2022-10-15T22:56:32.749Z,6.80
2022-10-15T22:58:59.852Z,6.82
2022-10-15T23:01:32.482Z,6.85
2022-10-15T23:04:03.473Z,6.70
2022-10-15T23:06:31.985Z,6.50
2022-10-15T23:08:59.880Z,7.75
2022-10-15T23:11:32.578Z,7.53
2022-10-15T23:14:02.817Z,7.55
2022-10-15T23:16:32.305Z,7.18
2022-10-15T23:19:02.205Z,7.70
2022-10-15T23:21:32.814Z,7.25
2022-10-15T23:24:00.977Z,7.03
2022-10-15T23:28:58.033Z,6.87
2022-10-15T23:31:30.356Z,7.22
2022-10-15T23:33:57.643Z,6.70
2022-10-15T23:36:26.307Z,6.30
2022-10-15T23:38:55.897Z,6.95
2022-10-15T23:41:23.655Z,6.93
2022-10-15T23:43:50.891Z,6.85
2022-10-15T23:46:18.889Z,7.28
2022-10-15T23:48:46.365Z,7.28
2022-10-15T23:51:20.592Z,6.90
2022-10-15T23:53:48.496Z,7.05
2022-10-15T23:56:16.081Z,6.85
2022-10-15T23:58:43.330Z,7.10
